createdAt,value
2019-06-26T00:00:43.645Z,3.87
2019-06-26T00:03:12.185Z,4.33
2019-06-26T00:05:40.811Z,4.45
2019-06-26T00:08:09.584Z,4.53
2019-06-26T00:10:38.247Z,4.37
2019-06-26T00:13:06.982Z,4.70
2019-06-26T00:15:35.624Z,4.87
2019-06-26T00:18:04.183Z,4.47
2019-06-26T00:20:32.979Z,4.37
2019-06-26T00:23:01.636Z,4.40
2019-06-26T00:25:30.172Z,4.25
2019-06-26T00:27:58.838Z,4.20
2019-06-26T00:30:27.516Z,4.78
2019-06-26T00:32:56.114Z,4.42
2019-06-26T00:35:24.746Z,4.60
2019-06-26T00:37:53.474Z,4.25
2019-06-26T00:40:22.056Z,4.15
2019-06-26T00:42:50.761Z,3.40
2019-06-26T00:45:19.578Z,4.12
2019-06-26T00:47:48.313Z,3.60
2019-06-26T00:50:17.103Z,3.75
2019-06-26T00:52:45.733Z,3.70
2019-06-26T00:55:14.445Z,3.67
2019-06-26T00:57:43.253Z,3.60
2019-06-26T01:00:12.481Z,4.00
2019-06-26T01:02:41.187Z,3.60
2019-06-26T01:05:11.787Z,3.35
2019-06-26T01:07:40.522Z,3.87
2019-06-26T01:10:11.123Z,3.85
2019-06-26T01:12:39.781Z,4.08
2019-06-26T01:15:08.616Z,4.03
2019-06-26T01:17:37.447Z,4.70
2019-06-26T01:20:09.169Z,3.67
2019-06-26T01:22:37.946Z,4.17
2019-06-26T01:25:06.726Z,3.87
2019-06-26T01:27:35.370Z,4.05
2019-06-26T01:30:05.912Z,3.77
2019-06-26T01:32:34.582Z,4.30
2019-06-26T01:35:04.599Z,4.42
2019-06-26T01:37:33.226Z,4.50
2019-06-26T01:40:01.967Z,5.35
2019-06-26T01:42:30.590Z,6.00
2019-06-26T01:44:59.381Z,6.22
2019-06-26T01:47:28.101Z,7.97
2019-06-26T01:49:56.601Z,7.53
2019-06-26T01:52:25.422Z,9.27
2019-06-26T01:54:53.987Z,9.80
2019-06-26T01:57:22.741Z,9.83
2019-06-26T01:59:51.369Z,10.20
2019-06-26T02:02:19.926Z,10.30
2019-06-26T02:04:48.602Z,9.77
2019-06-26T02:07:17.299Z,9.65
2019-06-26T02:09:46.032Z,9.55
2019-06-26T02:12:14.669Z,9.38
2019-06-26T02:14:43.636Z,8.75
2019-06-26T02:17:12.411Z,9.13
2019-06-26T02:19:41.159Z,8.50
2019-06-26T02:22:09.835Z,8.68
2019-06-26T02:24:38.495Z,8.55
2019-06-26T02:27:07.301Z,10.30
2019-06-26T02:29:35.970Z,15.45
2019-06-26T02:32:04.644Z,18.92
2019-06-26T02:34:33.240Z,15.58
2019-06-26T02:37:01.986Z,16.57
2019-06-26T02:39:30.711Z,17.30
2019-06-26T02:42:00.168Z,16.30
2019-06-26T02:44:28.853Z,14.70
2019-06-26T02:47:17.675Z,14.57
2019-06-26T02:49:27.843Z,12.83
2019-06-26T02:51:56.491Z,9.10
2019-06-26T02:54:25.350Z,8.90
2019-06-26T02:56:54.039Z,7.17
2019-06-26T02:59:22.725Z,7.57
2019-06-26T03:01:51.505Z,8.23
2019-06-26T03:04:20.317Z,7.83
2019-06-26T03:06:49.090Z,9.10
2019-06-26T03:09:17.786Z,8.45
2019-06-26T03:11:46.919Z,10.00
2019-06-26T03:14:16.127Z,12.30
2019-06-26T03:16:45.345Z,13.90
2019-06-26T03:19:14.599Z,13.60
2019-06-26T03:21:43.619Z,12.25
2019-06-26T03:24:12.961Z,11.95
2019-06-26T03:26:42.059Z,11.15
2019-06-26T03:29:11.229Z,11.50
2019-06-26T03:31:40.564Z,12.23
2019-06-26T03:34:09.607Z,12.75
2019-06-26T03:36:38.918Z,11.80
2019-06-26T03:39:08.634Z,11.35
2019-06-26T03:41:37.878Z,11.20
2019-06-26T03:44:07.181Z,9.13
2019-06-26T03:46:36.639Z,10.13
2019-06-26T03:49:06.031Z,9.55
2019-06-26T03:51:35.217Z,9.33
2019-06-26T03:54:04.660Z,9.55
2019-06-26T03:56:33.718Z,8.83
2019-06-26T03:59:02.955Z,10.50
2019-06-26T04:01:32.115Z,11.33
2019-06-26T04:04:01.254Z,13.20
2019-06-26T04:06:30.541Z,12.98
2019-06-26T04:08:59.680Z,13.00
2019-06-26T04:11:29.112Z,19.50
2019-06-26T04:13:58.185Z,16.15
2019-06-26T04:16:27.504Z,12.70
2019-06-26T04:18:56.797Z,13.70
2019-06-26T04:21:26.096Z,12.28
2019-06-26T04:23:55.467Z,11.03
2019-06-26T04:26:24.832Z,11.48
2019-06-26T04:28:54.391Z,11.95
2019-06-26T04:31:23.622Z,11.50
2019-06-26T04:33:52.932Z,10.43
2019-06-26T04:36:22.304Z,10.53
2019-06-26T04:38:51.442Z,10.80
2019-06-26T04:41:20.912Z,10.53
2019-06-26T04:43:50.184Z,11.33
2019-06-26T04:46:19.478Z,9.10
2019-06-26T04:48:48.781Z,8.47
2019-06-26T04:51:17.959Z,8.00
2019-06-26T04:53:47.218Z,8.55
2019-06-26T04:58:44.563Z,7.70
2019-06-26T05:01:13.734Z,8.40
2019-06-26T05:03:42.708Z,9.30
2019-06-26T05:06:11.883Z,9.17
2019-06-26T05:08:41.087Z,10.03
2019-06-26T05:11:12.585Z,9.28
2019-06-26T05:13:41.264Z,9.53
2019-06-26T05:16:15.096Z,7.83
2019-06-26T05:18:41.107Z,8.20
2019-06-26T05:28:31.335Z,9.30
2019-06-26T05:31:00.782Z,8.65
2019-06-26T05:33:30.537Z,8.38
2019-06-26T05:35:59.944Z,8.70
2019-06-26T05:38:29.446Z,8.87
2019-06-26T05:40:58.673Z,7.63
2019-06-26T05:43:27.924Z,7.97
2019-06-26T05:45:57.626Z,8.55
2019-06-26T05:48:27.379Z,9.10
2019-06-26T05:50:56.522Z,10.08
2019-06-26T05:58:22.855Z,15.32
2019-06-26T06:00:52.776Z,16.07
2019-06-26T06:03:22.252Z,11.50
2019-06-26T06:05:51.627Z,11.90
2019-06-26T06:08:21.028Z,11.50
2019-06-26T06:10:50.314Z,9.77
2019-06-26T06:13:19.569Z,9.70
2019-06-26T06:15:49.127Z,8.20
2019-06-26T06:18:18.278Z,9.90
2019-06-26T06:20:47.384Z,10.20
2019-06-26T06:23:16.649Z,10.73
2019-06-26T06:25:45.866Z,10.93
2019-06-26T06:28:15.204Z,9.40
2019-06-26T06:30:44.853Z,9.67
2019-06-26T06:33:14.016Z,9.05
2019-06-26T06:35:43.478Z,11.23
2019-06-26T06:38:12.574Z,10.00
2019-06-26T06:40:41.808Z,8.70
2019-06-26T06:43:10.702Z,9.70
2019-06-26T06:45:39.872Z,10.28
2019-06-26T06:48:08.906Z,9.33
2019-06-26T06:50:38.045Z,9.08
2019-06-26T06:53:07.512Z,8.88
2019-06-26T06:55:36.720Z,7.70
2019-06-26T06:58:05.994Z,7.87
2019-06-26T07:00:35.304Z,8.70
2019-06-26T07:03:04.658Z,8.10
2019-06-26T07:05:33.915Z,11.75
2019-06-26T07:08:03.118Z,9.28
2019-06-26T07:10:32.336Z,11.60
2019-06-26T07:13:02.075Z,11.85
2019-06-26T07:15:31.287Z,13.03
2019-06-26T07:18:00.666Z,12.53
2019-06-26T07:20:29.853Z,12.00
2019-06-26T07:22:59.255Z,9.80
2019-06-26T07:25:28.476Z,8.40
2019-06-26T07:28:01.494Z,11.75
2019-06-26T07:30:28.196Z,9.20
2019-06-26T07:32:57.256Z,9.17
2019-06-26T07:35:26.237Z,9.60
2019-06-26T07:37:55.522Z,7.70
2019-06-26T07:40:24.400Z,6.95
2019-06-26T07:42:53.481Z,6.50
2019-06-26T07:45:24.162Z,6.97
2019-06-26T07:50:21.859Z,7.17
2019-06-26T07:52:50.833Z,10.15
2019-06-26T07:55:20.177Z,7.15
2019-06-26T07:57:49.292Z,8.80
2019-06-26T08:00:18.832Z,9.78
2019-06-26T08:02:48.133Z,10.40
2019-06-26T08:05:18.820Z,10.95
2019-06-26T08:07:48.168Z,13.10
2019-06-26T08:10:18.056Z,14.43
2019-06-26T08:12:47.253Z,13.20
2019-06-26T08:15:18.317Z,9.33
2019-06-26T08:18:00.001Z,6.50
2019-06-26T08:20:18.658Z,9.00
2019-06-26T08:22:47.824Z,8.00
2019-06-26T08:25:17.417Z,6.35
2019-06-26T08:27:46.571Z,6.45
2019-06-26T08:30:16.318Z,6.95
2019-06-26T08:32:45.333Z,6.10
2019-06-26T08:35:14.698Z,6.67
2019-06-26T08:37:43.904Z,5.37
2019-06-26T08:40:14.532Z,5.50
2019-06-26T08:42:43.537Z,5.37
2019-06-26T08:45:12.709Z,4.78
2019-06-26T08:47:41.861Z,5.17
2019-06-26T08:50:11.620Z,5.17
2019-06-26T08:52:40.737Z,12.37
2019-06-26T08:55:10.417Z,5.30
2019-06-26T08:57:39.783Z,5.72
2019-06-26T09:00:11.102Z,6.50
2019-06-26T09:02:40.438Z,6.08
2019-06-26T09:05:09.996Z,4.75
2019-06-26T09:07:39.099Z,5.83
2019-06-26T09:10:08.877Z,5.15
2019-06-26T09:12:37.962Z,4.50
2019-06-26T09:15:07.946Z,4.70
2019-06-26T09:17:37.143Z,4.90
2019-06-26T09:22:35.258Z,4.87
2019-06-26T09:25:20.739Z,4.27
2019-06-26T09:27:39.061Z,4.42
2019-06-26T09:30:10.836Z,4.12
2019-06-26T09:32:39.872Z,4.37
2019-06-26T09:35:09.050Z,4.37
2019-06-26T09:37:38.178Z,4.47
2019-06-26T09:40:08.961Z,4.85
2019-06-26T09:42:37.962Z,4.47
2019-06-26T09:45:07.969Z,4.60
2019-06-26T09:47:36.997Z,4.40
2019-06-26T09:50:07.416Z,4.20
2019-06-26T09:55:05.058Z,4.72
2019-06-26T09:57:34.005Z,4.33
2019-06-26T10:00:03.087Z,4.50
2019-06-26T10:02:32.150Z,4.10
2019-06-26T10:05:01.391Z,4.45
2019-06-26T10:07:30.582Z,4.25
2019-06-26T10:12:28.055Z,4.10
2019-06-26T10:14:57.088Z,4.17
2019-06-26T10:17:26.337Z,4.85
2019-06-26T10:19:55.564Z,7.78
2019-06-26T10:22:24.835Z,7.30
2019-06-26T10:24:53.989Z,6.67
2019-06-26T10:27:23.350Z,10.98
2019-06-26T10:29:52.591Z,6.50
2019-06-26T10:32:21.771Z,4.22
2019-06-26T10:34:50.832Z,6.20
2019-06-26T10:37:20.046Z,8.70
2019-06-26T10:39:49.508Z,7.45
2019-06-26T10:42:18.629Z,3.85
2019-06-26T10:44:47.730Z,4.55
2019-06-26T10:47:16.822Z,3.20
2019-06-26T10:49:45.956Z,3.50
2019-06-26T10:52:15.034Z,3.30
2019-06-26T10:54:44.688Z,3.67
2019-06-26T10:57:14.041Z,3.45
2019-06-26T10:59:43.065Z,3.53
2019-06-26T11:02:12.160Z,3.27
2019-06-26T11:04:41.276Z,3.05
2019-06-26T11:07:10.489Z,3.30
2019-06-26T11:09:39.607Z,3.52
2019-06-26T11:12:08.596Z,3.50
2019-06-26T11:14:37.637Z,3.45
2019-06-26T11:17:06.700Z,3.40
2019-06-26T11:19:43.597Z,3.20
2019-06-26T11:22:06.564Z,3.15
2019-06-26T11:24:35.720Z,3.62
2019-06-26T11:27:04.851Z,3.57
2019-06-26T11:29:33.980Z,3.40
2019-06-26T11:32:03.068Z,3.42
2019-06-26T11:34:32.264Z,3.20
2019-06-26T11:37:04.160Z,3.72
2019-06-26T11:39:32.101Z,3.33
2019-06-26T11:42:01.164Z,3.50
2019-06-26T11:44:30.295Z,3.92
2019-06-26T11:46:59.485Z,3.65
2019-06-26T11:49:28.660Z,3.50
2019-06-26T11:51:57.671Z,3.65
2019-06-26T11:54:26.796Z,4.12
2019-06-26T11:56:56.753Z,3.77
2019-06-26T11:59:26.082Z,3.58
2019-06-26T12:01:55.164Z,3.70
2019-06-26T12:04:24.326Z,3.37
2019-06-26T12:06:53.531Z,3.23
2019-06-26T12:09:22.743Z,3.70
2019-06-26T12:11:52.048Z,3.87
2019-06-26T12:14:21.246Z,3.42
2019-06-26T12:16:50.486Z,3.20
2019-06-26T12:19:23.267Z,4.00
2019-06-26T12:21:50.199Z,3.70
2019-06-26T12:24:19.356Z,3.73
2019-06-26T12:26:48.622Z,4.00
2019-06-26T12:29:17.648Z,3.53
2019-06-26T12:31:46.767Z,4.20
2019-06-26T12:34:16.226Z,3.55
2019-06-26T12:36:45.867Z,3.67
2019-06-26T12:39:14.861Z,4.10
2019-06-26T12:41:43.932Z,4.17
2019-06-26T12:44:13.169Z,4.30
2019-06-26T12:46:42.218Z,3.83
2019-06-26T12:49:11.347Z,3.75
2019-06-26T12:51:40.413Z,4.12
2019-06-26T12:54:09.990Z,3.80
2019-06-26T12:56:38.906Z,4.22
2019-06-26T12:59:08.366Z,3.90
2019-06-26T13:01:38.439Z,3.60
2019-06-26T13:04:08.105Z,3.98
2019-06-26T13:09:07.726Z,3.33
2019-06-26T13:11:36.701Z,3.83
2019-06-26T13:14:06.149Z,3.70
2019-06-26T13:16:35.224Z,4.00
2019-06-26T13:19:04.459Z,4.10
2019-06-26T13:21:33.652Z,3.85
2019-06-26T13:24:02.720Z,3.92
2019-06-26T13:26:31.780Z,4.08
2019-06-26T13:29:00.695Z,3.60
2019-06-26T13:31:29.988Z,3.83
2019-06-26T13:33:58.985Z,3.50
2019-06-26T13:36:28.097Z,3.92
2019-06-26T13:38:57.200Z,3.50
2019-06-26T13:41:26.704Z,4.35
2019-06-26T13:43:59.836Z,3.80
2019-06-26T13:46:27.383Z,3.90
2019-06-26T13:51:25.719Z,4.00
2019-06-26T13:56:23.409Z,3.92
2019-06-26T13:58:53.496Z,3.70
2019-06-26T14:01:23.307Z,3.50
2019-06-26T14:03:52.855Z,3.87
2019-06-26T14:06:22.164Z,4.97
2019-06-26T14:08:51.566Z,6.55
2019-06-26T14:11:20.744Z,6.53
2019-06-26T14:13:50.029Z,4.40
2019-06-26T14:16:19.330Z,4.22
2019-06-26T14:18:48.734Z,3.62
2019-06-26T14:21:25.576Z,4.22
2019-06-26T14:23:48.628Z,4.15
2019-06-26T14:26:17.633Z,4.00
2019-06-26T14:28:46.674Z,6.70
2019-06-26T14:31:15.753Z,3.62
2019-06-26T14:33:44.814Z,3.02
2019-06-26T14:36:14.040Z,3.55
2019-06-26T14:38:43.528Z,3.75
2019-06-26T14:43:41.262Z,3.83
2019-06-26T14:46:10.772Z,4.33
2019-06-26T14:48:39.929Z,4.20
2019-06-26T14:51:09.203Z,3.98
2019-06-26T14:53:38.439Z,6.35
2019-06-26T14:56:07.955Z,5.85
2019-06-26T14:58:37.373Z,4.20
2019-06-26T15:01:06.558Z,4.15
2019-06-26T15:03:35.807Z,5.28
2019-06-26T15:06:15.981Z,4.78
2019-06-26T15:08:36.254Z,3.70
2019-06-26T15:11:05.602Z,4.75
2019-06-26T15:13:34.688Z,4.55
2019-06-26T15:16:04.127Z,4.70
2019-06-26T15:18:33.592Z,4.08
2019-06-26T15:21:02.926Z,3.90
2019-06-26T15:23:32.329Z,4.53
2019-06-26T15:26:01.590Z,3.37
2019-06-26T15:28:30.917Z,5.57
2019-06-26T15:31:00.029Z,18.67
2019-06-26T15:33:29.900Z,6.22
2019-06-26T15:35:59.618Z,6.03
2019-06-26T15:38:29.379Z,4.80
2019-06-26T15:40:58.822Z,6.92
2019-06-26T15:43:27.922Z,8.30
2019-06-26T15:45:57.524Z,5.33
2019-06-26T15:48:26.816Z,6.37
2019-06-26T15:50:56.030Z,4.83
2019-06-26T15:53:25.554Z,5.00
2019-06-26T15:55:54.703Z,4.60
2019-06-26T15:58:24.297Z,5.33
2019-06-26T16:00:53.624Z,6.12
2019-06-26T16:03:22.916Z,5.57
2019-06-26T16:05:51.840Z,4.90
2019-06-26T16:08:21.199Z,4.20
2019-06-26T16:10:50.598Z,4.50
2019-06-26T16:13:20.064Z,4.47
2019-06-26T16:15:49.552Z,4.70
2019-06-26T16:18:35.085Z,4.33
2019-06-26T16:21:04.452Z,4.83
2019-06-26T16:23:33.607Z,4.83
2019-06-26T16:26:03.098Z,4.20
2019-06-26T16:28:32.401Z,4.40
2019-06-26T16:31:01.646Z,4.65
2019-06-26T16:33:30.879Z,4.72
2019-06-26T16:36:00.281Z,5.08
2019-06-26T16:38:29.721Z,4.40
2019-06-26T16:40:59.162Z,4.60
2019-06-26T16:43:28.484Z,4.53
2019-06-26T16:45:57.961Z,4.42
2019-06-26T16:48:27.530Z,4.90
2019-06-26T16:50:57.171Z,5.05
2019-06-26T16:53:26.458Z,4.58
2019-06-26T16:55:55.832Z,4.72
2019-06-26T16:58:25.083Z,4.87
2019-06-26T17:00:54.189Z,4.55
2019-06-26T17:03:23.301Z,5.22
2019-06-26T17:05:52.584Z,4.83
2019-06-26T17:08:21.617Z,5.10
2019-06-26T17:10:51.039Z,5.20
2019-06-26T17:13:20.791Z,4.85
2019-06-26T17:15:49.917Z,5.10
2019-06-26T17:18:19.030Z,5.17
2019-06-26T17:20:48.096Z,5.15
2019-06-26T17:23:17.273Z,4.87
2019-06-26T17:25:47.053Z,4.53
2019-06-26T17:28:16.626Z,4.83
2019-06-26T17:30:45.742Z,4.77
2019-06-26T17:33:14.983Z,5.37
2019-06-26T17:35:44.395Z,4.75
2019-06-26T17:38:13.896Z,4.67
2019-06-26T17:40:43.165Z,4.90
2019-06-26T17:43:13.096Z,4.55
2019-06-26T17:45:42.665Z,5.37
2019-06-26T17:48:11.977Z,4.80
2019-06-26T17:50:41.157Z,5.00
2019-06-26T17:53:21.236Z,4.72
2019-06-26T17:55:41.352Z,5.45
2019-06-26T17:58:10.695Z,4.72
2019-06-26T18:00:40.080Z,4.80
2019-06-26T18:03:09.156Z,5.33
2019-06-26T18:05:38.225Z,5.15
2019-06-26T18:08:07.487Z,5.87
2019-06-26T18:10:37.178Z,4.70
2019-06-26T18:13:06.877Z,5.33
2019-06-26T18:15:35.885Z,5.07
2019-06-26T18:18:05.488Z,4.95
2019-06-26T18:20:34.549Z,5.55
2019-06-26T18:23:07.625Z,5.28
2019-06-26T18:25:34.422Z,5.78
2019-06-26T18:28:03.468Z,5.22
2019-06-26T18:30:32.523Z,5.70
2019-06-26T18:33:01.647Z,5.67
2019-06-26T18:35:30.975Z,5.72
2019-06-26T18:38:00.507Z,5.58
2019-06-26T18:40:29.785Z,5.72
2019-06-26T18:42:58.873Z,6.30
2019-06-26T18:45:28.186Z,6.08
2019-06-26T18:47:57.543Z,6.58
2019-06-26T18:50:27.164Z,6.53
2019-06-26T18:52:56.195Z,6.50
2019-06-26T18:55:25.401Z,6.62
2019-06-26T18:57:54.994Z,6.05
2019-06-26T19:00:24.058Z,6.33
2019-06-26T19:02:53.188Z,7.12
2019-06-26T19:05:22.290Z,6.85
2019-06-26T19:07:51.473Z,6.00
2019-06-26T19:10:20.725Z,6.72
2019-06-26T19:12:49.898Z,5.80
2019-06-26T19:15:19.596Z,5.53
2019-06-26T19:17:48.915Z,5.60
2019-06-26T19:20:19.352Z,5.97
2019-06-26T19:22:48.871Z,6.43
2019-06-26T19:25:18.019Z,5.72
2019-06-26T19:27:47.723Z,5.97
2019-06-26T19:30:17.236Z,5.97
2019-06-26T19:32:46.215Z,6.15
2019-06-26T19:35:19.849Z,5.97
2019-06-26T19:37:47.061Z,5.75
2019-06-26T19:40:17.123Z,6.12
2019-06-26T19:42:46.231Z,5.60
2019-06-26T19:45:16.376Z,5.70
2019-06-26T19:47:45.396Z,6.67
2019-06-26T19:50:16.019Z,6.37
2019-06-26T19:52:45.723Z,6.33
2019-06-26T19:55:15.122Z,6.80
2019-06-26T19:57:44.366Z,6.67
2019-06-26T20:00:13.878Z,6.95
2019-06-26T20:02:43.184Z,6.97
2019-06-26T20:05:12.653Z,7.00
2019-06-26T20:07:42.155Z,7.67
2019-06-26T20:10:12.192Z,7.80
2019-06-26T20:12:41.059Z,8.30
2019-06-26T20:15:10.552Z,9.90
2019-06-26T20:17:39.750Z,10.68
2019-06-26T20:20:09.601Z,11.90
2019-06-26T20:22:38.825Z,11.48
2019-06-26T20:25:08.908Z,11.70
2019-06-26T20:27:37.730Z,11.87
2019-06-26T20:30:10.017Z,11.35
2019-06-26T20:32:39.103Z,10.43
2019-06-26T20:35:08.690Z,10.88
2019-06-26T20:37:38.022Z,10.93
2019-06-26T20:40:08.233Z,10.32
2019-06-26T20:42:36.952Z,10.60
2019-06-26T20:45:06.984Z,11.73
2019-06-26T20:47:35.716Z,10.18
2019-06-26T20:50:08.253Z,10.53
2019-06-26T20:52:36.897Z,10.72
2019-06-26T20:55:06.434Z,10.72
2019-06-26T20:57:35.132Z,10.93
2019-06-26T21:00:04.438Z,11.18
2019-06-26T21:02:33.232Z,10.90
2019-06-26T21:05:01.817Z,11.05
2019-06-26T21:07:30.660Z,11.40
2019-06-26T21:09:59.502Z,11.08
2019-06-26T21:12:28.230Z,10.98
2019-06-26T21:14:56.818Z,11.20
2019-06-26T21:17:26.039Z,11.53
2019-06-26T21:19:54.848Z,11.43
2019-06-26T21:22:24.231Z,10.70
2019-06-26T21:24:52.966Z,11.48
2019-06-26T21:27:21.777Z,11.50
2019-06-26T21:29:50.612Z,11.48
2019-06-26T21:32:19.333Z,11.40
2019-06-26T21:34:47.956Z,10.80
2019-06-26T21:37:16.617Z,10.90
2019-06-26T21:39:45.157Z,10.90
2019-06-26T21:42:13.827Z,10.48
2019-06-26T21:44:42.366Z,11.12
2019-06-26T21:47:10.903Z,11.65
2019-06-26T21:49:39.627Z,11.60
2019-06-26T21:52:08.364Z,11.18
2019-06-26T21:54:37.132Z,11.10
2019-06-26T21:57:09.152Z,11.22
2019-06-26T21:59:36.303Z,11.20
2019-06-26T22:02:04.965Z,10.82
2019-06-26T22:04:33.757Z,10.65
2019-06-26T22:07:02.462Z,10.98
2019-06-26T22:09:31.084Z,11.38
2019-06-26T22:12:00.859Z,11.05
2019-06-26T22:14:29.805Z,11.03
2019-06-26T22:16:58.359Z,11.75
2019-06-26T22:19:27.234Z,11.40
2019-06-26T22:21:55.920Z,11.25
2019-06-26T22:24:24.608Z,11.05
2019-06-26T22:26:53.480Z,11.22
2019-06-26T22:29:22.141Z,11.35
2019-06-26T22:31:50.907Z,11.95
2019-06-26T22:34:19.658Z,11.25
2019-06-26T22:36:51.702Z,10.45
2019-06-26T22:39:18.701Z,10.93
2019-06-26T22:41:47.438Z,11.38
2019-06-26T22:44:16.270Z,11.55
2019-06-26T22:46:45.013Z,11.63
2019-06-26T22:49:13.739Z,11.68
2019-06-26T22:51:42.925Z,12.70
2019-06-26T22:54:11.684Z,12.63
2019-06-26T22:56:40.300Z,12.30
2019-06-26T22:59:09.091Z,11.73
2019-06-26T23:01:37.670Z,12.63
2019-06-26T23:04:06.401Z,12.47
2019-06-26T23:06:37.427Z,12.85
2019-06-26T23:09:06.731Z,13.78
2019-06-26T23:11:35.583Z,12.05
2019-06-26T23:14:04.348Z,12.82
2019-06-26T23:16:33.005Z,12.28
2019-06-26T23:19:01.931Z,12.23
2019-06-26T23:21:30.684Z,12.60
2019-06-26T23:23:59.597Z,12.50
2019-06-26T23:26:28.385Z,11.85
2019-06-26T23:28:57.057Z,12.13
2019-06-26T23:31:25.874Z,11.97
2019-06-26T23:33:54.638Z,12.93
2019-06-26T23:36:23.138Z,11.65
2019-06-26T23:38:52.189Z,12.58
2019-06-26T23:41:20.812Z,13.20
2019-06-26T23:43:49.553Z,12.10
2019-06-26T23:46:18.478Z,12.93
2019-06-26T23:48:47.224Z,13.22
2019-06-26T23:51:16.003Z,12.78
2019-06-26T23:53:44.676Z,12.88
2019-06-26T23:56:13.464Z,12.70
2019-06-26T23:58:42.333Z,13.00
